Whitingham, VT (05361)

7:47 AM EST on March 06, 2015 (GMT -0500)
South of the Village | Change Station
CLOSE
Current Station
Personal Weather Station
Location: Jacksonville, VT
Elevation: 1545 ft
Nearby Weather Stations

Elev 1545 ft 42.76 °N, 72.81 °W | Updated 2 minutes ago

Clear
Clear
6.6 °F
Feels Like -2 °F
N
4.5
Wind Variable Wind from North
Gusts 9.8 mph

Today
High -- | Low -- °F
--% Chance of Precip.
Yesterday
High -- | Low -- °F
Precip. -- in
6:19 AM 5:46 PM
Waxing Gibbous, 99% visible
Pressure 30.52 in
Visibility 10.0 miles
Clouds Clear
Windchill -2 °F
Dew Point -20 °F
Humidity 27%
Rainfall in
Snow Depth Not available.
UV 0 out of 12
Pollen .50 out of 12
Air Quality Not available.
Flu Activity Not available.
METAR KAQW 061152Z AUTO 00000KT 10SM CLR M23/M26 A3047 RMK AO2 SLP335 T12281256 11139 21228 53022

More Conditions Fewer Conditions

Pressure 30.52 in
Visibility 10.0 miles
Clouds Clear
Windchill -2 °F
Dew Point -20 °F
Humidity 27%
Rainfall in
Snow Depth Not available.
UV 0 out of 12
Pollen .50 out of 12
Air Quality Not available.
Flu Activity Not available.
METAR KAQW 061152Z AUTO 00000KT 10SM CLR M23/M26 A3047 RMK AO2 SLP335 T12281256 11139 21228 53022

More Conditions Fewer Conditions

10-Day Weather Forecast

Almanac

Astronomy

Mar. 06, 2015 Rise Set
Actual Time
Civil Twilight
Nautical Twilight
Astronomical Twilight
Moon
Length of Visible Light
Length of Day
Tomorrow will be .
, % of the Moon is Illuminated

Today's Extremes

State Highs State Lows

Community

WunderPhotos

Upload Photos

1,803,246 photos uploaded!

WunderBlogs® & News

Nearby

Air Quality

  Air Quality AQ Index Pollutant
Not available.

Snow Depth

Station Depth Elevation

Earthquake Activity

City Distance Mag. Time & Date
Minimum magnitude displayed is 2.5.

Coastal Water Temperatures

Place Temperature

Nearby Weather Stations